createdAt,value
2023-03-06T00:01:48.927Z,19.90
2023-03-06T00:05:16.356Z,20.70
2023-03-06T00:08:46.426Z,23.30
2023-03-06T00:12:14.161Z,23.60
2023-03-06T00:15:41.810Z,21.30
2023-03-06T00:19:09.167Z,21.70
2023-03-06T00:22:36.369Z,22.00
2023-03-06T00:26:03.629Z,17.80
2023-03-06T00:29:32.448Z,18.00
2023-03-06T00:32:59.377Z,18.40
2023-03-06T00:36:26.627Z,24.80
2023-03-06T00:39:56.817Z,30.90
2023-03-06T00:43:23.925Z,21.70
2023-03-06T00:46:51.963Z,22.80
2023-03-06T00:50:19.222Z,22.00
2023-03-06T00:53:46.089Z,19.10
2023-03-06T00:57:13.510Z,18.40
2023-03-06T01:00:41.606Z,19.40
2023-03-06T01:04:09.495Z,19.40
2023-03-06T01:07:37.770Z,22.10
2023-03-06T01:11:05.938Z,20.30
2023-03-06T01:14:33.822Z,20.70
2023-03-06T01:18:01.883Z,21.80
2023-03-06T01:21:29.448Z,20.70
2023-03-06T01:24:56.218Z,18.50
2023-03-06T01:28:24.806Z,20.40
2023-03-06T01:31:53.540Z,19.30
2023-03-06T01:35:21.048Z,19.40
2023-03-06T01:38:48.907Z,18.70
2023-03-06T01:42:19.574Z,18.80
2023-03-06T01:46:25.253Z,17.80
2023-03-06T01:49:52.463Z,16.70
2023-03-06T01:53:23.002Z,17.40
2023-03-06T01:56:54.466Z,19.60
2023-03-06T02:00:26.750Z,19.80
2023-03-06T02:03:55.041Z,19.80
2023-03-06T02:07:25.802Z,19.40
2023-03-06T02:11:03.753Z,20.70
2023-03-06T02:14:31.602Z,22.30
2023-03-06T02:17:59.059Z,21.80
2023-03-06T02:21:28.896Z,20.20
2023-03-06T02:25:04.147Z,20.10
2023-03-06T02:28:31.142Z,20.30
2023-03-06T02:31:59.821Z,20.00
2023-03-06T02:35:30.495Z,21.50
2023-03-06T02:38:58.904Z,21.50
2023-03-06T02:42:30.140Z,20.10
2023-03-06T02:45:57.682Z,21.00
2023-03-06T02:49:26.512Z,20.90
2023-03-06T02:52:53.924Z,19.20
2023-03-06T02:56:21.162Z,18.90
2023-03-06T02:59:48.396Z,18.30
2023-03-06T03:03:16.196Z,17.50
2023-03-06T03:06:42.902Z,18.70
2023-03-06T03:10:13.162Z,18.40
2023-03-06T03:13:40.897Z,17.30
2023-03-06T03:17:10.640Z,17.40
2023-03-06T03:20:38.427Z,18.20
2023-03-06T03:24:06.398Z,20.20
2023-03-06T03:27:33.339Z,19.50
2023-03-06T03:31:03.431Z,19.50
2023-03-06T03:34:31.316Z,19.10
2023-03-06T03:37:58.622Z,18.70
2023-03-06T03:41:25.514Z,17.70
2023-03-06T03:44:52.009Z,18.50
2023-03-06T03:48:20.043Z,18.20
2023-03-06T03:51:47.169Z,17.90
2023-03-06T03:55:15.324Z,19.50
2023-03-06T03:58:42.625Z,17.40
2023-03-06T04:02:09.874Z,17.50
2023-03-06T04:05:42.842Z,18.60
2023-03-06T04:09:10.779Z,17.70
2023-03-06T04:12:39.201Z,18.50
2023-03-06T04:16:07.042Z,18.40
2023-03-06T04:19:35.392Z,17.20
2023-03-06T04:23:03.486Z,18.50
2023-03-06T04:26:31.356Z,15.80
2023-03-06T04:29:58.658Z,16.20
2023-03-06T04:33:25.749Z,17.00
2023-03-06T04:36:53.755Z,17.30
2023-03-06T04:40:23.781Z,17.50
2023-03-06T04:43:50.445Z,17.40
2023-03-06T04:47:19.064Z,16.00
2023-03-06T04:50:46.110Z,17.20
2023-03-06T04:54:12.934Z,18.10
2023-03-06T04:57:40.954Z,17.50
2023-03-06T05:01:08.243Z,17.90
2023-03-06T05:04:35.150Z,18.80
2023-03-06T05:08:02.144Z,17.50
2023-03-06T05:11:29.259Z,16.60
2023-03-06T05:14:55.859Z,16.30
2023-03-06T05:18:23.393Z,16.60
2023-03-06T05:21:50.337Z,16.10
2023-03-06T05:25:17.055Z,15.50
2023-03-06T05:28:44.074Z,16.30
2023-03-06T05:32:11.677Z,15.70
2023-03-06T05:35:38.876Z,16.30
2023-03-06T05:39:06.571Z,17.10
2023-03-06T05:42:35.151Z,16.90
2023-03-06T05:46:08.194Z,16.30
2023-03-06T05:49:37.287Z,13.30
2023-03-06T05:53:05.257Z,16.40
2023-03-06T05:56:32.244Z,16.60
2023-03-06T05:59:58.968Z,16.40
2023-03-06T06:03:25.667Z,16.50
2023-03-06T06:06:58.300Z,16.70
2023-03-06T06:10:24.779Z,15.90
2023-03-06T06:13:53.023Z,15.30
2023-03-06T06:17:20.629Z,16.40
2023-03-06T06:20:47.590Z,16.10
2023-03-06T06:24:15.155Z,18.80
2023-03-06T06:27:42.166Z,17.10
2023-03-06T06:31:13.746Z,17.50
2023-03-06T06:34:40.626Z,18.50
2023-03-06T06:38:07.461Z,17.90
2023-03-06T06:41:51.019Z,17.40
2023-03-06T06:45:20.678Z,18.90
2023-03-06T06:48:48.903Z,18.60
2023-03-06T06:52:16.162Z,23.00
2023-03-06T06:55:43.168Z,25.90
2023-03-06T06:59:16.697Z,22.20
2023-03-06T07:02:44.044Z,22.50
2023-03-06T07:06:11.494Z,22.90
2023-03-06T07:09:40.030Z,22.10
2023-03-06T07:13:06.623Z,21.20
2023-03-06T07:16:33.634Z,20.60
2023-03-06T07:20:00.894Z,20.20
2023-03-06T07:23:29.036Z,20.50
2023-03-06T07:26:57.226Z,19.40
2023-03-06T07:30:37.160Z,31.80
2023-03-06T07:34:14.977Z,24.80
2023-03-06T07:37:44.716Z,22.80
2023-03-06T07:41:14.777Z,22.60
2023-03-06T07:44:42.237Z,20.70
2023-03-06T07:48:10.525Z,27.40
2023-03-06T07:51:38.232Z,28.60
2023-03-06T07:55:07.559Z,26.50
2023-03-06T07:58:35.215Z,32.90
2023-03-06T08:02:02.934Z,76.50
2023-03-06T08:05:32.132Z,46.30
2023-03-06T08:08:59.453Z,40.60
2023-03-06T08:12:26.184Z,40.90
2023-03-06T08:15:53.042Z,29.10
2023-03-06T08:19:20.331Z,26.10
2023-03-06T08:22:50.466Z,30.00
2023-03-06T08:26:19.364Z,35.70
2023-03-06T08:29:46.230Z,47.10
2023-03-06T08:33:12.996Z,39.80
2023-03-06T08:36:40.199Z,30.00
2023-03-06T08:40:08.013Z,41.70
2023-03-06T08:43:36.565Z,30.80
2023-03-06T08:47:05.982Z,34.30
2023-03-06T08:50:32.886Z,44.20
2023-03-06T08:54:00.339Z,31.90
2023-03-06T08:57:27.202Z,25.30
2023-03-06T09:00:54.385Z,26.80
2023-03-06T09:04:20.998Z,27.20
2023-03-06T09:07:47.655Z,27.80
2023-03-06T09:11:16.129Z,30.20
2023-03-06T09:14:43.158Z,31.40
2023-03-06T09:18:09.967Z,26.50
2023-03-06T09:21:36.688Z,25.60
2023-03-06T09:25:05.177Z,25.20
2023-03-06T09:28:32.541Z,53.60
2023-03-06T09:32:00.208Z,30.40
2023-03-06T09:35:27.102Z,23.90
2023-03-06T09:38:53.951Z,20.90
2023-03-06T09:42:23.933Z,20.00
2023-03-06T09:45:50.898Z,19.50
2023-03-06T09:50:00.978Z,19.30
2023-03-06T09:53:40.840Z,20.70
2023-03-06T09:57:15.816Z,22.30
2023-03-06T10:00:48.416Z,22.70
2023-03-06T10:04:32.881Z,24.80
2023-03-06T10:08:03.319Z,27.10
2023-03-06T10:11:38.219Z,28.30
2023-03-06T10:15:15.611Z,30.10
2023-03-06T10:18:43.520Z,30.50
2023-03-06T10:22:27.488Z,29.40
2023-03-06T10:26:01.181Z,30.10
2023-03-06T10:30:01.732Z,28.50
2023-03-06T10:33:43.655Z,21.80
2023-03-06T10:37:20.104Z,20.50
2023-03-06T10:40:55.506Z,19.80
2023-03-06T10:44:27.643Z,20.10
2023-03-06T10:48:13.159Z,18.90
2023-03-06T10:51:39.486Z,17.30
2023-03-06T10:55:29.410Z,17.00
2023-03-06T10:59:08.768Z,20.40
2023-03-06T11:02:38.789Z,19.00
2023-03-06T11:06:13.443Z,20.40
2023-03-06T11:09:40.413Z,17.70
2023-03-06T11:13:22.623Z,17.10
2023-03-06T11:16:54.605Z,18.20
2023-03-06T11:20:23.688Z,17.50
2023-03-06T11:23:51.700Z,17.00
2023-03-06T11:27:30.575Z,16.10
2023-03-06T11:31:08.502Z,17.80
2023-03-06T11:34:44.057Z,17.00
2023-03-06T11:38:18.139Z,17.50
2023-03-06T11:41:54.211Z,17.60
2023-03-06T11:45:32.103Z,18.60
2023-03-06T11:49:07.053Z,17.70
2023-03-06T11:52:45.078Z,17.10
2023-03-06T11:56:26.564Z,16.70
2023-03-06T12:00:23.378Z,16.00
2023-03-06T12:04:08.544Z,15.60
2023-03-06T12:07:37.586Z,16.80
2023-03-06T12:11:12.874Z,14.70
2023-03-06T12:14:54.340Z,14.30
2023-03-06T12:18:34.760Z,14.00
2023-03-06T12:22:17.373Z,16.00
2023-03-06T12:25:49.810Z,17.90
2023-03-06T12:29:36.560Z,17.50
2023-03-06T12:33:12.960Z,15.90
2023-03-06T12:37:01.049Z,16.20
2023-03-06T12:40:59.336Z,16.50
2023-03-06T12:44:57.173Z,16.00
2023-03-06T12:48:28.339Z,13.40
2023-03-06T12:51:55.935Z,13.20
2023-03-06T12:55:25.992Z,15.70
2023-03-06T12:58:57.682Z,14.10
2023-03-06T13:02:42.947Z,13.40
2023-03-06T13:06:23.780Z,12.20
2023-03-06T13:10:07.855Z,12.60
2023-03-06T13:13:43.241Z,14.20
2023-03-06T13:17:33.865Z,13.50
2023-03-06T13:21:00.978Z,15.30
2023-03-06T13:24:28.683Z,14.60
2023-03-06T13:28:06.097Z,14.30
2023-03-06T13:32:06.091Z,14.10
2023-03-06T13:35:55.157Z,12.70
2023-03-06T13:39:22.140Z,14.20
2023-03-06T13:43:15.811Z,12.90
2023-03-06T13:46:44.010Z,13.40
2023-03-06T13:50:28.763Z,12.90
2023-03-06T13:54:30.452Z,12.80
2023-03-06T13:58:15.516Z,15.20
2023-03-06T14:01:58.060Z,15.00
2023-03-06T14:05:25.955Z,13.60
2023-03-06T14:08:52.760Z,12.00
2023-03-06T14:12:26.124Z,12.60
2023-03-06T14:19:20.538Z,13.00
2023-03-06T14:22:47.518Z,12.90
2023-03-06T14:26:19.035Z,13.00
2023-03-06T14:29:49.035Z,14.70
2023-03-06T14:33:27.293Z,13.00
2023-03-06T14:36:56.394Z,13.70
2023-03-06T14:40:31.571Z,14.80
2023-03-06T14:44:11.043Z,15.00
2023-03-06T14:47:38.786Z,14.30
2023-03-06T14:51:05.997Z,15.00
2023-03-06T14:54:38.227Z,15.40
2023-03-06T14:58:13.176Z,14.90
2023-03-06T15:01:42.761Z,15.80
2023-03-06T15:05:21.229Z,14.20
2023-03-06T15:08:57.926Z,14.80
2023-03-06T15:12:40.649Z,15.90
2023-03-06T15:16:10.167Z,16.10
2023-03-06T15:19:45.195Z,16.40
2023-03-06T15:23:21.779Z,16.90
2023-03-06T15:26:57.096Z,15.00
2023-03-06T15:30:39.711Z,14.50
2023-03-06T15:34:28.951Z,16.10
2023-03-06T15:37:55.872Z,14.30
2023-03-06T15:41:30.713Z,14.90
2023-03-06T15:45:03.234Z,15.80
2023-03-06T15:48:31.947Z,15.20
2023-03-06T15:51:59.212Z,16.30
2023-03-06T15:55:29.827Z,14.80
2023-03-06T15:58:59.054Z,14.20
2023-03-06T16:02:26.947Z,12.90
2023-03-06T16:05:53.731Z,12.00
2023-03-06T16:09:20.833Z,12.00
2023-03-06T16:12:51.371Z,12.00
2023-03-06T16:16:24.201Z,14.00
2023-03-06T16:19:51.174Z,14.10
2023-03-06T16:23:18.360Z,13.80
2023-03-06T16:26:47.368Z,13.60
2023-03-06T16:30:20.867Z,14.80
2023-03-06T16:33:48.693Z,15.60
2023-03-06T16:37:18.028Z,16.20
2023-03-06T16:40:44.911Z,16.50
2023-03-06T16:44:12.108Z,15.20
2023-03-06T16:47:38.844Z,15.80
2023-03-06T16:51:11.266Z,17.00
2023-03-06T16:54:38.731Z,17.40
2023-03-06T16:58:06.997Z,17.90
2023-03-06T17:01:35.256Z,16.00
2023-03-06T17:05:07.943Z,15.50
2023-03-06T17:08:35.128Z,14.50
2023-03-06T17:12:06.024Z,15.20
2023-03-06T17:15:34.405Z,16.10
2023-03-06T17:19:07.467Z,17.70
2023-03-06T17:22:38.950Z,18.60
2023-03-06T17:26:13.513Z,19.30
2023-03-06T17:29:45.724Z,18.80
2023-03-06T17:33:17.133Z,16.00
2023-03-06T17:36:45.675Z,18.10
2023-03-06T17:40:20.242Z,15.20
2023-03-06T17:43:47.114Z,17.40
2023-03-06T17:47:14.430Z,17.70
2023-03-06T17:50:41.877Z,18.60
2023-03-06T17:54:09.754Z,21.30
2023-03-06T17:57:37.838Z,24.30
2023-03-06T18:01:14.100Z,27.90
2023-03-06T18:04:43.421Z,40.00
2023-03-06T18:08:10.979Z,42.50
2023-03-06T18:11:38.442Z,39.60
2023-03-06T18:15:06.005Z,48.00
2023-03-06T18:18:33.785Z,40.10
2023-03-06T18:22:01.609Z,40.20
2023-03-06T18:25:28.709Z,41.10
2023-03-06T18:28:58.434Z,36.00
2023-03-06T18:32:26.540Z,35.80
2023-03-06T18:35:53.843Z,35.70
2023-03-06T18:39:21.689Z,36.10
2023-03-06T18:42:49.316Z,38.20
2023-03-06T18:46:16.162Z,37.80
2023-03-06T18:49:45.274Z,41.10
2023-03-06T18:53:15.107Z,42.10
2023-03-06T18:56:44.883Z,44.00
2023-03-06T19:00:20.171Z,43.00
2023-03-06T19:03:48.998Z,41.30
2023-03-06T19:07:21.960Z,41.90
2023-03-06T19:14:19.644Z,36.80
2023-03-06T19:17:49.726Z,36.50
2023-03-06T19:21:21.056Z,37.80
2023-03-06T19:24:55.368Z,35.40
2023-03-06T19:28:22.737Z,35.30
2023-03-06T19:31:51.582Z,34.50
2023-03-06T19:35:22.264Z,33.60
2023-03-06T19:38:53.076Z,36.00
2023-03-06T19:42:22.441Z,39.30
2023-03-06T19:45:49.940Z,45.40
2023-03-06T19:49:23.132Z,51.30
2023-03-06T19:52:50.238Z,55.80
2023-03-06T19:56:20.509Z,61.50
2023-03-06T19:59:50.301Z,60.70
2023-03-06T20:03:18.042Z,54.50
2023-03-06T20:06:47.402Z,54.30
2023-03-06T20:10:16.965Z,51.90
2023-03-06T20:13:47.686Z,46.40
2023-03-06T20:17:20.711Z,45.80
2023-03-06T20:21:02.514Z,42.80
2023-03-06T20:24:29.803Z,45.10
2023-03-06T20:28:03.122Z,46.00
2023-03-06T20:31:34.836Z,45.80
2023-03-06T20:35:11.146Z,44.90
2023-03-06T20:38:39.402Z,44.20
2023-03-06T20:42:09.058Z,39.00
2023-03-06T20:45:39.172Z,38.80
2023-03-06T20:49:09.757Z,38.20
2023-03-06T20:52:43.060Z,36.50
2023-03-06T20:56:15.760Z,35.20
2023-03-06T20:59:52.564Z,37.50
2023-03-06T21:03:20.712Z,37.40
2023-03-06T21:06:50.156Z,34.30
2023-03-06T21:10:26.286Z,35.20
2023-03-06T21:13:58.125Z,32.90
2023-03-06T21:17:25.908Z,34.10
2023-03-06T21:20:54.806Z,34.70
2023-03-06T21:24:23.025Z,35.20
2023-03-06T21:27:54.242Z,35.30
2023-03-06T21:31:23.395Z,37.60
2023-03-06T21:34:51.970Z,37.20
2023-03-06T21:38:19.164Z,38.00
2023-03-06T21:41:50.085Z,38.60
2023-03-06T21:45:18.530Z,40.00
2023-03-06T21:48:48.255Z,39.40
2023-03-06T21:52:15.040Z,37.90
2023-03-06T21:55:43.582Z,38.40
2023-03-06T21:59:13.348Z,41.20
2023-03-06T22:02:41.836Z,42.60
2023-03-06T22:06:19.489Z,37.90
2023-03-06T22:09:56.126Z,37.10
2023-03-06T22:13:27.148Z,39.80
2023-03-06T22:17:05.184Z,42.70
2023-03-06T22:20:33.557Z,46.40
2023-03-06T22:24:03.742Z,52.20
2023-03-06T22:27:35.359Z,52.10
2023-03-06T22:31:11.599Z,50.50
2023-03-06T22:34:42.799Z,53.60
2023-03-06T22:38:16.536Z,50.50
2023-03-06T22:41:49.877Z,49.20
2023-03-06T22:45:20.647Z,48.90
2023-03-06T22:48:50.146Z,49.20
2023-03-06T22:52:19.760Z,54.90
2023-03-06T22:55:50.247Z,54.20
2023-03-06T22:59:18.973Z,59.10
2023-03-06T23:02:47.494Z,57.40
2023-03-06T23:06:17.137Z,63.30
2023-03-06T23:09:44.273Z,58.50
2023-03-06T23:13:30.120Z,61.80
2023-03-06T23:17:17.398Z,70.20
2023-03-06T23:21:15.733Z,65.00
2023-03-06T23:25:02.847Z,69.60
2023-03-06T23:28:33.440Z,65.80
2023-03-06T23:32:01.740Z,62.70
2023-03-06T23:35:30.314Z,62.10
2023-03-06T23:38:59.270Z,56.90
2023-03-06T23:42:26.736Z,57.40
2023-03-06T23:45:59.185Z,56.40
2023-03-06T23:49:28.494Z,52.70
2023-03-06T23:53:03.117Z,53.20
2023-03-06T23:56:34.177Z,53.80
